createdAt,value
2023-08-15T00:02:20.066Z,11.45
2023-08-15T00:04:46.376Z,15.70
2023-08-15T00:07:12.697Z,17.83
2023-08-15T00:09:38.992Z,11.50
2023-08-15T00:12:05.369Z,8.90
2023-08-15T00:14:31.726Z,11.30
2023-08-15T00:16:58.075Z,7.07
2023-08-15T00:19:24.482Z,9.70
2023-08-15T00:21:50.736Z,8.00
2023-08-15T00:24:17.118Z,10.15
2023-08-15T00:26:43.437Z,10.00
2023-08-15T00:29:09.747Z,7.40
2023-08-15T00:31:36.005Z,7.22
2023-08-15T00:34:02.338Z,8.55
2023-08-15T00:36:28.661Z,9.38
2023-08-15T00:38:54.956Z,10.98
2023-08-15T00:41:21.350Z,6.88
2023-08-15T00:43:47.630Z,10.23
2023-08-15T00:46:14.691Z,14.35
2023-08-15T00:48:41.100Z,12.68
2023-08-15T00:51:07.535Z,10.40
2023-08-15T00:53:34.923Z,11.07
2023-08-15T00:56:01.200Z,12.15
2023-08-15T00:58:28.973Z,11.30
2023-08-15T01:00:55.276Z,10.13
2023-08-15T01:03:21.913Z,18.17
2023-08-15T01:05:48.901Z,10.32
2023-08-15T01:08:15.256Z,10.07
2023-08-15T01:10:43.246Z,13.45
2023-08-15T01:13:21.612Z,12.80
2023-08-15T01:15:50.882Z,10.57
2023-08-15T01:18:35.663Z,9.68
2023-08-15T01:21:02.284Z,6.22
2023-08-15T01:23:37.112Z,8.45
2023-08-15T01:26:03.447Z,7.53
2023-08-15T01:28:30.219Z,14.55
2023-08-15T01:33:26.060Z,8.00
2023-08-15T01:35:56.705Z,7.30
2023-08-15T01:38:40.853Z,8.93
2023-08-15T01:41:08.246Z,14.23
2023-08-15T01:43:35.202Z,10.95
2023-08-15T01:46:01.938Z,9.70
2023-08-15T01:50:54.480Z,10.45
2023-08-15T01:53:20.945Z,10.52
2023-08-15T01:55:47.266Z,10.77
2023-08-15T01:58:13.553Z,8.95
2023-08-15T02:00:40.277Z,9.50
2023-08-15T02:03:06.642Z,10.32
2023-08-15T02:05:35.604Z,12.18
2023-08-15T02:08:02.418Z,11.35
2023-08-15T02:10:28.726Z,9.93
2023-08-15T02:12:54.997Z,15.55
2023-08-15T02:15:21.297Z,10.98
2023-08-15T02:17:47.608Z,8.77
2023-08-15T02:20:14.037Z,8.02
2023-08-15T02:22:40.339Z,13.30
2023-08-15T02:25:06.733Z,10.45
2023-08-15T02:27:33.013Z,7.47
2023-08-15T02:29:59.304Z,11.90
2023-08-15T02:32:25.622Z,11.98
2023-08-15T02:34:52.989Z,13.07
2023-08-15T02:37:19.601Z,10.88
2023-08-15T02:42:12.367Z,12.50
2023-08-15T02:44:38.655Z,13.65
2023-08-15T02:47:05.015Z,12.38
2023-08-15T02:49:31.345Z,13.43
2023-08-15T02:51:57.702Z,11.73
2023-08-15T02:54:24.051Z,10.20
2023-08-15T02:56:50.336Z,16.40
2023-08-15T02:59:16.682Z,10.77
2023-08-15T03:01:42.986Z,16.08
2023-08-15T03:04:10.163Z,10.60
2023-08-15T03:06:37.256Z,11.20
2023-08-15T03:09:03.587Z,10.40
2023-08-15T03:11:30.409Z,12.68
2023-08-15T03:16:22.940Z,11.25
2023-08-15T03:18:49.196Z,10.00
2023-08-15T03:21:15.475Z,16.10
2023-08-15T03:23:42.866Z,14.63
2023-08-15T03:26:09.275Z,9.55
2023-08-15T03:28:35.650Z,14.13
2023-08-15T03:31:06.226Z,16.55
2023-08-15T03:33:33.052Z,14.98
2023-08-15T03:38:25.579Z,16.55
2023-08-15T03:41:02.348Z,10.88
2023-08-15T03:43:29.051Z,17.67
2023-08-15T03:45:55.411Z,12.98
2023-08-15T03:48:21.740Z,12.25
2023-08-15T03:50:48.029Z,12.43
2023-08-15T03:53:14.337Z,17.42
2023-08-15T03:55:40.618Z,11.73
2023-08-15T03:58:06.923Z,14.40
2023-08-15T04:00:33.238Z,12.88
2023-08-15T04:02:59.643Z,15.02
2023-08-15T04:05:26.035Z,10.80
2023-08-15T04:07:52.366Z,16.67
2023-08-15T04:10:18.679Z,9.80
2023-08-15T04:12:45.452Z,17.13
2023-08-15T04:17:38.018Z,18.48
2023-08-15T04:20:06.076Z,15.95
2023-08-15T04:22:32.764Z,13.77
2023-08-15T04:24:59.201Z,20.45
2023-08-15T04:27:25.490Z,23.92
2023-08-15T04:29:52.087Z,16.08
2023-08-15T04:32:18.394Z,15.35
2023-08-15T04:34:44.711Z,24.38
2023-08-15T04:37:11.001Z,15.90
2023-08-15T04:39:37.269Z,13.65
2023-08-15T04:42:03.608Z,18.92
2023-08-15T04:44:29.867Z,12.38
2023-08-15T04:46:56.186Z,15.82
2023-08-15T04:49:22.484Z,15.55
2023-08-15T04:51:48.828Z,23.83
2023-08-15T04:54:15.367Z,16.88
2023-08-15T04:56:41.683Z,9.23
2023-08-15T04:59:07.989Z,10.90
2023-08-15T05:01:34.675Z,15.15
2023-08-15T05:04:01.024Z,11.25
2023-08-15T05:06:27.286Z,13.88
2023-08-15T05:08:53.575Z,13.60
2023-08-15T05:11:19.891Z,8.55
2023-08-15T05:13:46.334Z,15.23
2023-08-15T05:16:12.667Z,9.95
2023-08-15T05:18:38.986Z,11.90
2023-08-15T05:21:05.274Z,9.15
2023-08-15T05:23:31.569Z,8.40
2023-08-15T05:25:57.841Z,9.95
2023-08-15T05:28:24.154Z,6.65
2023-08-15T05:30:50.482Z,9.48
2023-08-15T05:33:16.859Z,11.93
2023-08-15T05:35:43.206Z,12.00
2023-08-15T05:38:09.612Z,6.57
2023-08-15T05:40:36.271Z,9.18
2023-08-15T05:43:02.616Z,11.18
2023-08-15T05:45:30.590Z,11.63
2023-08-15T05:47:57.005Z,12.73
2023-08-15T05:50:23.360Z,11.10
2023-08-15T05:52:49.726Z,7.03
2023-08-15T05:55:16.051Z,8.63
2023-08-15T05:57:42.421Z,10.95
2023-08-15T06:00:09.718Z,6.68
2023-08-15T06:02:39.857Z,6.32
2023-08-15T06:05:06.259Z,7.05
2023-08-15T06:07:32.554Z,23.00
2023-08-15T06:09:58.833Z,8.45
2023-08-15T06:12:25.131Z,8.32
2023-08-15T06:14:51.454Z,5.85
2023-08-15T06:17:18.310Z,5.47
2023-08-15T06:19:44.768Z,4.65
2023-08-15T06:22:11.068Z,6.53
2023-08-15T06:24:37.388Z,4.45
2023-08-15T06:27:04.113Z,12.48
2023-08-15T06:31:58.801Z,7.78
2023-08-15T06:34:25.171Z,4.03
2023-08-15T06:36:51.439Z,12.80
2023-08-15T06:39:17.709Z,3.63
2023-08-15T06:41:43.964Z,6.18
2023-08-15T06:44:10.270Z,3.72
2023-08-15T06:46:36.765Z,8.60
2023-08-15T06:49:03.211Z,6.18
2023-08-15T06:51:29.541Z,8.02
2023-08-15T06:53:56.332Z,7.05
2023-08-15T06:56:22.861Z,5.95
2023-08-15T06:58:49.172Z,6.03
2023-08-15T07:01:15.583Z,6.45
2023-08-15T07:03:41.981Z,8.85
2023-08-15T07:06:08.402Z,5.80
2023-08-15T07:08:34.713Z,4.63
2023-08-15T07:11:01.704Z,5.47
2023-08-15T07:13:28.646Z,5.07
2023-08-15T07:15:56.091Z,8.43
2023-08-15T07:18:22.995Z,5.38
2023-08-15T07:20:49.907Z,5.45
2023-08-15T07:23:16.365Z,9.05
2023-08-15T07:25:44.521Z,10.25
2023-08-15T07:28:11.115Z,6.65
2023-08-15T07:33:04.011Z,11.55
2023-08-15T07:35:30.290Z,5.50
2023-08-15T07:37:56.566Z,8.45
2023-08-15T07:40:23.302Z,10.80
2023-08-15T07:45:21.004Z,5.70
2023-08-15T07:47:52.643Z,8.68
2023-08-15T07:50:20.030Z,5.28
2023-08-15T07:52:46.499Z,5.75
2023-08-15T07:55:12.927Z,10.30
2023-08-15T07:57:39.430Z,7.65
2023-08-15T08:00:06.002Z,10.32
2023-08-15T08:04:59.530Z,8.98
2023-08-15T08:07:25.901Z,7.05
2023-08-15T08:09:52.192Z,5.43
2023-08-15T08:12:18.634Z,6.15
2023-08-15T08:14:52.532Z,9.40
2023-08-15T08:17:24.076Z,4.72
2023-08-15T08:22:16.660Z,4.57
2023-08-15T08:24:42.973Z,7.15
2023-08-15T08:27:09.288Z,6.35
2023-08-15T08:29:36.421Z,7.30
2023-08-15T08:32:03.828Z,6.65
2023-08-15T08:34:30.092Z,5.10
2023-08-15T08:36:57.584Z,7.18
2023-08-15T08:39:31.784Z,4.25
2023-08-15T08:41:59.283Z,4.53
2023-08-15T08:46:51.930Z,5.32
2023-08-15T08:51:44.782Z,3.92
2023-08-15T08:54:11.032Z,5.75
2023-08-15T08:59:10.109Z,3.85
2023-08-15T09:01:37.878Z,2.72
2023-08-15T09:04:04.479Z,3.00
2023-08-15T09:06:30.824Z,6.90
2023-08-15T09:08:59.447Z,4.32
2023-08-15T09:11:35.300Z,5.78
2023-08-15T09:14:04.978Z,4.80
2023-08-15T09:16:31.973Z,6.60
2023-08-15T09:19:02.182Z,10.10
2023-08-15T09:21:28.543Z,3.55
2023-08-15T09:26:21.260Z,5.15
2023-08-15T09:31:14.956Z,3.63
2023-08-15T09:36:07.911Z,4.05
2023-08-15T09:38:36.497Z,6.43
2023-08-15T09:41:02.825Z,4.53
2023-08-15T09:45:56.162Z,4.32
2023-08-15T09:48:23.177Z,7.53
2023-08-15T09:50:49.892Z,5.53
2023-08-15T09:53:16.338Z,6.45
2023-08-15T09:55:42.878Z,6.72
2023-08-15T09:58:09.165Z,6.82
2023-08-15T10:00:37.003Z,6.05
2023-08-15T10:03:19.575Z,7.13
2023-08-15T10:05:54.255Z,10.27
2023-08-15T10:08:21.112Z,14.07
2023-08-15T10:10:51.308Z,8.27
2023-08-15T10:13:19.791Z,5.90
2023-08-15T10:15:46.754Z,5.45
2023-08-15T10:18:14.108Z,7.85
2023-08-15T10:20:40.561Z,5.03
2023-08-15T10:23:10.497Z,6.80
2023-08-15T10:25:41.400Z,7.05
2023-08-15T10:28:12.290Z,7.72
2023-08-15T10:30:51.676Z,7.07
2023-08-15T10:33:20.147Z,9.30
2023-08-15T10:36:05.501Z,8.27
2023-08-15T10:38:33.043Z,7.25
2023-08-15T10:41:07.569Z,6.80
2023-08-15T10:43:34.376Z,11.00
2023-08-15T10:46:01.767Z,14.50
2023-08-15T10:51:21.828Z,9.20
2023-08-15T10:53:51.982Z,8.30
2023-08-15T10:56:19.913Z,9.00
2023-08-15T10:58:49.370Z,6.85
2023-08-15T11:01:19.530Z,8.00
2023-08-15T11:03:47.522Z,7.90
2023-08-15T11:06:14.321Z,6.18
2023-08-15T11:08:41.345Z,9.88
2023-08-15T11:11:08.120Z,5.13
2023-08-15T11:13:41.772Z,9.57
2023-08-15T11:16:08.544Z,9.48
2023-08-15T11:18:36.308Z,3.97
2023-08-15T11:21:03.450Z,5.00
2023-08-15T11:23:30.296Z,9.80
2023-08-15T11:26:06.771Z,7.38
2023-08-15T11:28:33.444Z,7.95
2023-08-15T11:31:03.119Z,6.70
2023-08-15T11:33:35.328Z,6.75
2023-08-15T11:38:31.868Z,6.15
2023-08-15T11:40:58.596Z,7.15
2023-08-15T11:43:26.376Z,3.45
2023-08-15T11:45:52.869Z,5.80
2023-08-15T11:48:19.310Z,2.72
2023-08-15T11:53:13.011Z,5.28
2023-08-15T11:55:39.529Z,7.93
2023-08-15T11:58:21.506Z,4.35
2023-08-15T12:00:47.778Z,8.15
2023-08-15T12:05:44.829Z,5.03
2023-08-15T12:08:13.830Z,2.67
2023-08-15T12:10:42.299Z,5.63
2023-08-15T12:13:08.915Z,4.90
2023-08-15T12:15:35.234Z,4.82
2023-08-15T12:18:01.625Z,6.28
2023-08-15T12:20:28.064Z,5.55
2023-08-15T12:22:54.353Z,3.88
2023-08-15T12:25:21.641Z,5.03
2023-08-15T12:27:48.045Z,6.55
2023-08-15T12:30:16.558Z,5.53
2023-08-15T12:32:43.101Z,4.65
2023-08-15T12:35:09.448Z,8.85
2023-08-15T12:37:35.954Z,3.45
2023-08-15T12:40:02.271Z,2.72
2023-08-15T12:42:28.637Z,5.68
2023-08-15T12:44:54.966Z,3.67
2023-08-15T12:47:21.244Z,4.72
2023-08-15T12:49:48.296Z,5.18
2023-08-15T12:52:14.626Z,2.10
2023-08-15T12:54:40.918Z,4.30
2023-08-15T12:57:07.203Z,4.32
2023-08-15T12:59:33.691Z,5.85
2023-08-15T13:01:59.953Z,2.25
2023-08-15T13:04:26.294Z,3.58
2023-08-15T13:06:55.432Z,3.75
2023-08-15T13:09:21.742Z,3.17
2023-08-15T13:11:48.135Z,2.28
2023-08-15T13:14:14.488Z,1.67
2023-08-15T13:16:41.243Z,3.28
2023-08-15T13:19:07.543Z,2.88
2023-08-15T13:21:34.176Z,3.38
2023-08-15T13:24:00.530Z,2.80
2023-08-15T13:26:26.853Z,1.60
2023-08-15T13:28:53.147Z,3.65
2023-08-15T13:31:19.538Z,2.20
2023-08-15T13:33:45.955Z,3.38
2023-08-15T13:36:12.319Z,3.15
2023-08-15T13:38:38.798Z,2.70
2023-08-15T13:41:05.522Z,4.70
2023-08-15T13:43:34.211Z,4.03
2023-08-15T13:46:07.615Z,4.75
2023-08-15T13:48:34.379Z,1.50
2023-08-15T13:51:04.253Z,2.20
2023-08-15T13:53:30.728Z,2.58
2023-08-15T13:55:57.095Z,3.00
2023-08-15T13:58:24.644Z,3.13
2023-08-15T14:00:50.983Z,2.92
2023-08-15T14:03:17.334Z,2.88
2023-08-15T14:05:43.715Z,2.30
2023-08-15T14:08:10.914Z,1.63
2023-08-15T14:10:37.532Z,1.65
2023-08-15T14:13:03.855Z,3.35
2023-08-15T14:15:30.407Z,6.10
2023-08-15T14:17:56.930Z,1.88
2023-08-15T14:20:23.333Z,4.30
2023-08-15T14:22:49.640Z,2.35
2023-08-15T14:25:17.117Z,2.42
2023-08-15T14:27:43.401Z,2.35
2023-08-15T14:30:11.464Z,5.38
2023-08-15T14:32:37.853Z,2.03
2023-08-15T14:35:04.299Z,1.83
2023-08-15T14:37:31.492Z,7.35
2023-08-15T14:39:57.780Z,1.30
2023-08-15T14:42:24.275Z,4.22
2023-08-15T14:44:52.387Z,4.07
2023-08-15T14:47:26.690Z,5.28
2023-08-15T14:49:53.368Z,3.10
2023-08-15T14:52:19.654Z,3.20
2023-08-15T14:57:12.172Z,0.93
2023-08-15T15:02:04.793Z,2.65
2023-08-15T15:04:31.142Z,4.28
2023-08-15T15:06:57.458Z,4.30
2023-08-15T15:09:23.738Z,2.92
2023-08-15T15:11:50.014Z,1.42
2023-08-15T15:14:17.520Z,1.77
2023-08-15T15:16:44.145Z,3.00
2023-08-15T15:21:36.663Z,3.67
2023-08-15T15:24:03.663Z,2.20
2023-08-15T15:26:29.930Z,4.20
2023-08-15T15:28:56.200Z,2.22
2023-08-15T15:31:22.513Z,1.90
2023-08-15T15:33:48.851Z,1.13
2023-08-15T15:36:15.816Z,3.28
2023-08-15T15:38:42.318Z,2.35
2023-08-15T15:43:34.794Z,1.58
2023-08-15T15:46:01.088Z,2.33
2023-08-15T15:50:53.681Z,3.42
2023-08-15T15:53:20.046Z,1.50
2023-08-15T15:58:12.567Z,1.67
2023-08-15T16:03:05.389Z,3.88
2023-08-15T16:05:31.689Z,2.88
2023-08-15T16:10:24.232Z,1.73
2023-08-15T16:15:19.465Z,2.72
2023-08-15T16:17:47.031Z,6.03
2023-08-15T16:20:13.475Z,1.35
2023-08-15T16:25:06.309Z,0.95
2023-08-15T16:27:32.597Z,5.40
2023-08-15T16:32:37.681Z,3.15
2023-08-15T16:35:04.129Z,1.95
2023-08-15T16:37:30.462Z,1.73
2023-08-15T16:42:23.272Z,6.43
2023-08-15T16:44:49.783Z,2.15
2023-08-15T16:49:45.652Z,3.17
2023-08-15T16:52:13.029Z,2.05
2023-08-15T16:57:05.674Z,2.42
2023-08-15T17:01:58.331Z,9.00
2023-08-15T17:06:50.892Z,7.40
2023-08-15T17:11:43.751Z,6.93
2023-08-15T17:16:37.043Z,7.57
2023-08-15T17:19:03.475Z,11.85
2023-08-15T17:23:56.009Z,28.77
2023-08-15T17:26:26.780Z,14.07
2023-08-15T17:28:53.450Z,15.07
2023-08-15T17:31:19.776Z,22.02
2023-08-15T17:33:46.073Z,26.67
2023-08-15T17:36:12.327Z,16.95
2023-08-15T17:38:38.649Z,11.15
2023-08-15T17:41:04.944Z,2.67
2023-08-15T17:43:32.256Z,2.55
2023-08-15T17:45:58.684Z,2.75
2023-08-15T17:50:51.491Z,1.42
2023-08-15T17:53:18.552Z,2.83
2023-08-15T17:55:46.078Z,1.30
2023-08-15T17:58:12.340Z,1.85
2023-08-15T18:00:38.632Z,2.80
2023-08-15T18:03:05.219Z,0.93
2023-08-15T18:05:31.654Z,1.75
2023-08-15T18:07:57.911Z,5.55
2023-08-15T18:10:24.226Z,2.45
2023-08-15T18:12:50.501Z,2.08
2023-08-15T18:15:16.817Z,3.83
2023-08-15T18:17:43.116Z,3.80
2023-08-15T18:20:09.545Z,1.83
2023-08-15T18:22:36.746Z,3.72
2023-08-15T18:25:03.158Z,2.30
2023-08-15T18:27:29.462Z,1.52
2023-08-15T18:29:55.837Z,1.88
2023-08-15T18:32:22.355Z,2.65
2023-08-15T18:34:48.836Z,5.72
2023-08-15T18:37:15.103Z,2.28
2023-08-15T18:39:41.394Z,6.93
2023-08-15T18:42:07.693Z,3.38
2023-08-15T18:44:33.986Z,2.80
2023-08-15T18:47:03.100Z,7.00
2023-08-15T18:49:31.032Z,5.43
2023-08-15T18:51:57.945Z,3.10
2023-08-15T18:54:24.303Z,4.10
2023-08-15T18:56:50.596Z,8.10
2023-08-15T18:59:16.865Z,5.63
2023-08-15T19:01:43.212Z,2.40
2023-08-15T19:04:09.499Z,5.32
2023-08-15T19:06:36.140Z,5.82
2023-08-15T19:11:28.621Z,3.10
2023-08-15T19:13:54.920Z,5.25
2023-08-15T19:16:21.238Z,4.00
2023-08-15T19:18:47.576Z,2.20
2023-08-15T19:21:14.158Z,5.50
2023-08-15T19:26:07.369Z,3.22
2023-08-15T19:28:33.709Z,6.00
2023-08-15T19:31:00.028Z,6.65
2023-08-15T19:33:26.347Z,5.22
2023-08-15T19:35:52.676Z,5.85
2023-08-15T19:38:19.034Z,3.25
2023-08-15T19:40:45.349Z,14.35
2023-08-15T19:43:11.649Z,4.13
2023-08-15T19:45:37.938Z,3.65
2023-08-15T19:48:04.447Z,8.23
2023-08-15T19:50:30.853Z,4.30
2023-08-15T19:52:57.222Z,2.75
2023-08-15T19:55:23.618Z,9.35
2023-08-15T19:57:50.037Z,4.72
2023-08-15T20:00:16.314Z,2.78
2023-08-15T20:02:42.681Z,5.22
2023-08-15T20:05:09.278Z,4.72
2023-08-15T20:07:37.330Z,9.07
2023-08-15T20:10:11.678Z,4.15
2023-08-15T20:12:38.718Z,4.65
2023-08-15T20:15:05.270Z,3.03
2023-08-15T20:17:31.589Z,5.90
2023-08-15T20:19:57.940Z,5.63
2023-08-15T20:22:24.409Z,7.60
2023-08-15T20:24:51.005Z,3.40
2023-08-15T20:27:17.375Z,4.28
2023-08-15T20:29:43.680Z,7.85
2023-08-15T20:32:10.304Z,4.63
2023-08-15T20:37:02.983Z,5.72
2023-08-15T20:39:29.322Z,4.43
2023-08-15T20:41:55.624Z,5.93
2023-08-15T20:44:21.915Z,4.55
2023-08-15T20:46:50.332Z,5.28
2023-08-15T20:49:16.955Z,3.88
2023-08-15T20:51:43.235Z,6.18
2023-08-15T20:54:09.550Z,6.47
2023-08-15T20:56:35.813Z,6.20
2023-08-15T20:59:02.092Z,6.55
2023-08-15T21:01:28.413Z,8.45
2023-08-15T21:03:54.707Z,7.40
2023-08-15T21:06:21.098Z,3.10
2023-08-15T21:08:47.411Z,4.75
2023-08-15T21:11:13.830Z,5.53
2023-08-15T21:13:40.222Z,4.82
2023-08-15T21:16:07.012Z,8.52
2023-08-15T21:20:59.527Z,5.82
2023-08-15T21:23:25.834Z,5.05
2023-08-15T21:25:52.103Z,5.28
2023-08-15T21:28:18.397Z,7.82
2023-08-15T21:30:44.754Z,5.05
2023-08-15T21:33:11.295Z,6.18
2023-08-15T21:35:37.825Z,10.15
2023-08-15T21:38:04.230Z,6.57
2023-08-15T21:40:30.502Z,3.65
2023-08-15T21:42:56.776Z,7.90
2023-08-15T21:45:23.088Z,7.97
2023-08-15T21:47:49.399Z,4.57
2023-08-15T21:50:15.692Z,4.13
2023-08-15T21:52:41.939Z,3.45
2023-08-15T21:55:08.419Z,5.90
2023-08-15T21:57:34.685Z,5.35
2023-08-15T22:00:01.112Z,6.75
2023-08-15T22:02:27.600Z,2.20
2023-08-15T22:04:54.254Z,5.05
2023-08-15T22:07:20.871Z,6.05
2023-08-15T22:09:47.777Z,3.97
2023-08-15T22:12:14.064Z,3.08
2023-08-15T22:14:40.372Z,4.63
2023-08-15T22:17:06.728Z,3.50
2023-08-15T22:19:33.137Z,4.82
2023-08-15T22:21:59.424Z,3.63
2023-08-15T22:24:25.731Z,3.25
2023-08-15T22:26:52.158Z,4.57
2023-08-15T22:29:18.468Z,8.88
2023-08-15T22:31:45.611Z,3.78
2023-08-15T22:34:14.839Z,6.70
2023-08-15T22:36:41.279Z,5.22
2023-08-15T22:39:07.571Z,3.28
2023-08-15T22:41:33.881Z,8.85
2023-08-15T22:44:00.172Z,7.95
2023-08-15T22:46:26.494Z,5.90
2023-08-15T22:48:52.768Z,5.07
2023-08-15T22:51:19.176Z,5.40
2023-08-15T22:53:46.223Z,3.80
2023-08-15T22:56:12.575Z,4.00
2023-08-15T22:58:38.843Z,7.60
2023-08-15T23:01:05.955Z,12.23
2023-08-15T23:03:32.361Z,7.32
2023-08-15T23:06:05.761Z,5.20
2023-08-15T23:08:32.179Z,9.30
2023-08-15T23:10:58.483Z,4.13
2023-08-15T23:13:24.785Z,9.20
2023-08-15T23:15:51.305Z,8.25
2023-08-15T23:18:17.652Z,5.68
2023-08-15T23:20:44.210Z,8.68
2023-08-15T23:23:10.515Z,5.47
2023-08-15T23:25:37.468Z,7.90
2023-08-15T23:28:04.046Z,6.53
2023-08-15T23:30:30.848Z,11.43
2023-08-15T23:35:23.838Z,8.30
2023-08-15T23:37:51.500Z,7.70
2023-08-15T23:40:18.027Z,12.77
2023-08-15T23:42:44.532Z,10.13
2023-08-15T23:45:12.081Z,5.95
2023-08-15T23:47:38.382Z,4.35
2023-08-15T23:50:04.869Z,9.30
2023-08-15T23:52:31.208Z,4.03
2023-08-15T23:54:58.411Z,5.18
2023-08-15T23:57:24.932Z,9.77
2023-08-15T23:59:52.028Z,6.60
